Time;durP1;ratioP1;P1;durP2;ratioP2;P2;SDS_P1;SDS_P2;PMS_P1;PMS_P2;Temp;Humidity;BMP_temperature;BMP_pressure;BME280_temperature;BME280_humidity;BME280_pressure;Samples;Min_cycle;Max_cycle;Signal;HPM_P1;HPM_P2
2024/02/04 00:01:04;;;;;;;1.10;1.00;;;9.20;99.90;;;;;;4976797;28;20214;-74
2024/02/04 00:03:29;;;;;;;1.33;0.80;;;9.20;99.90;;;;;;4980812;28;20453;-74
2024/02/04 00:05:55;;;;;;;1.13;1.03;;;9.20;99.90;;;;;;4994981;28;20304;-73
2024/02/04 00:08:21;;;;;;;2.00;0.80;;;9.20;99.90;;;;;;4980445;28;20595;-74
2024/02/04 00:10:47;;;;;;;0.73;0.73;;;9.20;99.90;;;;;;4997286;28;20219;-75
2024/02/04 00:13:13;;;;;;;1.00;0.93;;;9.20;99.90;;;;;;4986532;28;20507;-75
2024/02/04 00:15:38;;;;;;;1.00;1.00;;;9.20;99.90;;;;;;4993572;28;20213;-74
2024/02/04 00:18:04;;;;;;;0.73;0.73;;;9.20;99.90;;;;;;5005831;28;20686;-75
2024/02/04 00:20:32;;;;;;;1.10;1.10;;;9.20;99.90;;;;;;4984639;28;20305;-74
2024/02/04 00:22:58;;;;;;;0.73;0.73;;;9.20;99.90;;;;;;4968640;28;20684;-74
2024/02/04 00:25:24;;;;;;;1.57;0.90;;;9.20;99.90;;;;;;4987461;28;20472;-75
2024/02/04 00:27:49;;;;;;;0.90;0.83;;;9.20;99.90;;;;;;4987255;28;20209;-75
2024/02/04 00:30:15;;;;;;;1.50;1.00;;;9.20;99.90;;;;;;4993010;28;20931;-77
2024/02/04 00:32:41;;;;;;;1.37;1.00;;;9.20;99.90;;;;;;4985024;28;20598;-75
2024/02/04 00:35:07;;;;;;;0.87;0.70;;;9.20;99.90;;;;;;4986021;28;20221;-76
2024/02/04 00:37:33;;;;;;;0.83;0.60;;;9.20;99.90;;;;;;4998441;28;20218;-75
2024/02/04 00:40:02;;;;;;;2.10;1.00;;;9.10;99.90;;;;;;4997883;28;20463;-76
2024/02/04 00:42:28;;;;;;;0.93;0.93;;;9.20;99.90;;;;;;4996154;28;20471;-75
2024/02/04 00:44:54;;;;;;;0.73;0.73;;;9.10;99.90;;;;;;4999963;28;20476;-74
2024/02/04 00:47:19;;;;;;;0.83;0.83;;;9.10;99.90;;;;;;4995632;28;20225;-75
2024/02/04 00:49:45;;;;;;;0.70;0.70;;;9.10;99.90;;;;;;5010071;28;20225;-74
2024/02/04 00:52:14;;;;;;;0.70;0.63;;;9.10;99.90;;;;;;4999491;28;20347;-76
2024/02/04 00:54:40;;;;;;;0.50;0.50;;;9.10;99.90;;;;;;4961148;28;20477;-74
2024/02/04 00:57:05;;;;;;;0.90;0.90;;;9.10;99.90;;;;;;4979448;28;20479;-74
2024/02/04 00:59:31;;;;;;;0.83;0.57;;;9.10;99.90;;;;;;4976706;28;20222;-75
2024/02/04 01:01:58;;;;;;;0.70;0.63;;;9.10;99.90;;;;;;4963102;28;20218;-74
2024/02/04 01:04:24;;;;;;;0.60;0.50;;;9.10;99.90;;;;;;4980072;28;20237;-74
2024/02/04 01:06:49;;;;;;;0.50;0.50;;;9.10;99.90;;;;;;4979768;28;20464;-76
2024/02/04 01:09:16;;;;;;;2.47;0.70;;;9.10;99.90;;;;;;4978961;28;20218;-75
2024/02/04 01:11:41;;;;;;;1.00;0.90;;;9.10;99.90;;;;;;4978969;28;20527;-75
2024/02/04 01:14:07;;;;;;;0.70;0.70;;;9.10;99.90;;;;;;4983127;28;20226;-74
2024/02/04 01:16:33;;;;;;;1.10;0.60;;;9.20;99.90;;;;;;4963126;28;20218;-75
2024/02/04 01:18:58;;;;;;;1.10;0.70;;;9.20;99.90;;;;;;4990854;28;20309;-74
2024/02/04 01:21:27;;;;;;;0.53;0.53;;;9.10;99.90;;;;;;4975425;28;20210;-73
2024/02/04 01:23:53;;;;;;;0.70;0.70;;;9.20;99.90;;;;;;4976844;28;20483;-75
2024/02/04 01:26:20;;;;;;;0.60;0.60;;;9.20;99.90;;;;;;4980133;28;20237;-75
2024/02/04 01:28:45;;;;;;;0.70;0.70;;;9.20;99.90;;;;;;4977186;28;20214;-75
2024/02/04 01:31:11;;;;;;;0.60;0.60;;;9.20;99.90;;;;;;4997896;28;20476;-75
2024/02/04 01:33:37;;;;;;;1.00;1.00;;;9.20;99.90;;;;;;4978730;28;20220;-75
2024/02/04 01:36:03;;;;;;;0.60;0.60;;;9.20;99.90;;;;;;4999723;28;20275;-75
2024/02/04 01:38:28;;;;;;;0.67;0.67;;;9.20;99.90;;;;;;5009843;28;20210;-73
2024/02/04 01:40:54;;;;;;;0.73;0.73;;;9.20;99.90;;;;;;4992129;28;20649;-75
2024/02/04 01:43:21;;;;;;;1.47;0.70;;;9.20;99.90;;;;;;4986840;28;20224;-76
2024/02/04 01:45:48;;;;;;;1.83;0.80;;;9.20;99.90;;;;;;5012682;28;20577;-75
2024/02/04 01:48:15;;;;;;;0.80;0.80;;;9.20;99.90;;;;;;4994505;28;20461;-75
2024/02/04 01:50:42;;;;;;;0.70;0.60;;;9.30;99.90;;;;;;5001285;28;20910;-75
2024/02/04 01:53:08;;;;;;;0.80;0.80;;;9.30;99.90;;;;;;4987853;28;20483;-76
2024/02/04 01:55:34;;;;;;;0.77;0.77;;;9.30;99.90;;;;;;5001103;28;20487;-76
2024/02/04 01:58:01;;;;;;;0.97;0.87;;;9.30;99.90;;;;;;5004040;28;20449;-75
2024/02/04 02:00:26;;;;;;;0.93;0.70;;;9.30;99.90;;;;;;5002193;28;20224;-75
2024/02/04 02:02:53;;;;;;;0.80;0.80;;;9.30;99.90;;;;;;5004303;28;20551;-74
2024/02/04 02:05:18;;;;;;;0.90;0.80;;;9.30;99.90;;;;;;5004826;28;20219;-74
2024/02/04 02:07:45;;;;;;;1.30;1.20;;;9.30;99.90;;;;;;5001300;28;20544;-75
2024/02/04 02:10:12;;;;;;;0.60;0.60;;;9.30;99.90;;;;;;4990241;28;20333;-75
2024/02/04 02:12:47;;;;;;;0.87;0.87;;;9.30;99.90;;;;;;4999497;28;20472;-74
2024/02/04 02:15:25;;;;;;;0.80;0.80;;;9.30;99.90;;;;;;5004751;28;20213;-75
2024/02/04 02:18:05;;;;;;;0.80;0.80;;;9.30;99.90;;;;;;4995996;28;20540;-74
2024/02/04 02:20:40;;;;;;;0.80;0.80;;;9.30;99.90;;;;;;4985895;28;21018;-74
2024/02/04 02:23:30;;;;;;;0.87;0.87;;;9.30;99.90;;;;;;5003806;28;20452;-73
2024/02/04 02:25:57;;;;;;;1.00;0.87;;;9.30;99.90;;;;;;5004678;28;20460;-74
2024/02/04 02:28:23;;;;;;;0.90;0.90;;;9.30;99.90;;;;;;4984962;28;20483;-76
2024/02/04 02:30:49;;;;;;;0.93;0.93;;;9.30;99.90;;;;;;5005622;28;20448;-75
2024/02/04 02:33:15;;;;;;;1.17;0.80;;;9.30;99.90;;;;;;5003863;28;20751;-75
2024/02/04 02:35:41;;;;;;;0.87;0.83;;;9.30;99.90;;;;;;5004617;28;20305;-76
2024/02/04 02:38:57;;;;;;;1.00;0.70;;;9.30;99.90;;;;;;4987534;28;20214;-75
2024/02/04 02:41:23;;;;;;;0.77;0.70;;;9.30;99.90;;;;;;4970256;28;20453;-76
2024/02/04 02:43:51;;;;;;;1.23;0.83;;;9.30;99.90;;;;;;5014781;28;20459;-75
2024/02/04 02:46:18;;;;;;;0.63;0.63;;;9.20;99.90;;;;;;5010609;28;20468;-76
2024/02/04 02:48:44;;;;;;;0.70;0.60;;;9.20;99.90;;;;;;4988534;28;20549;-76
2024/02/04 02:51:10;;;;;;;0.90;0.90;;;9.20;99.90;;;;;;4993614;28;20451;-75
2024/02/04 02:53:35;;;;;;;0.77;0.77;;;9.20;99.90;;;;;;4988248;28;20711;-75
2024/02/04 02:56:01;;;;;;;0.70;0.70;;;9.20;99.90;;;;;;5008330;28;20216;-75
2024/02/04 02:58:27;;;;;;;0.70;0.70;;;9.20;99.90;;;;;;4999724;28;20292;-74
2024/02/04 03:00:53;;;;;;;0.70;0.70;;;9.20;99.90;;;;;;5004163;28;20531;-76
2024/02/04 03:03:19;;;;;;;0.70;0.70;;;9.20;99.90;;;;;;4999534;28;20221;-76
2024/02/04 03:05:44;;;;;;;0.80;0.80;;;9.20;99.90;;;;;;5011832;28;20220;-76
2024/02/04 03:08:10;;;;;;;1.00;0.83;;;9.20;99.90;;;;;;5012731;28;20691;-76
2024/02/04 03:10:35;;;;;;;1.07;0.80;;;9.20;99.90;;;;;;5011379;28;20213;-76
2024/02/04 03:13:02;;;;;;;0.60;0.60;;;9.20;99.90;;;;;;5004911;28;20617;-75
2024/02/04 03:15:27;;;;;;;0.60;0.60;;;9.20;99.90;;;;;;5017994;28;20226;-75
2024/02/04 03:17:53;;;;;;;2.60;0.87;;;9.20;99.90;;;;;;4997137;28;20461;-76
2024/02/04 03:20:19;;;;;;;1.07;1.00;;;9.20;99.90;;;;;;4997199;28;20206;-76
2024/02/04 03:22:46;;;;;;;0.67;0.67;;;9.20;99.90;;;;;;5007632;28;20300;-76
2024/02/04 03:25:11;;;;;;;0.70;0.63;;;9.20;99.90;;;;;;4992132;28;20272;-76
2024/02/04 03:27:39;;;;;;;0.83;0.80;;;9.20;99.90;;;;;;4984004;28;20541;-74
2024/02/04 03:30:06;;;;;;;0.70;0.70;;;9.20;99.90;;;;;;4982401;28;20218;-75
2024/02/04 03:32:33;;;;;;;0.60;0.60;;;9.20;99.90;;;;;;4995154;28;20484;-76
2024/02/04 03:35:01;;;;;;;0.87;0.70;;;9.20;99.90;;;;;;4992007;28;20556;-75
2024/02/04 03:37:27;;;;;;;0.60;0.60;;;9.20;99.90;;;;;;4993275;28;20457;-76
2024/02/04 03:39:53;;;;;;;1.20;0.80;;;9.20;99.90;;;;;;4991188;28;20547;-76
2024/02/04 03:42:20;;;;;;;0.87;0.87;;;9.20;99.90;;;;;;4977882;28;20445;-76
2024/02/04 03:44:46;;;;;;;0.70;0.70;;;9.20;99.90;;;;;;4983308;28;20214;-76
2024/02/04 03:47:12;;;;;;;1.20;0.77;;;9.20;99.90;;;;;;5003553;28;20468;-76
2024/02/04 03:49:38;;;;;;;0.60;0.60;;;9.20;99.90;;;;;;5002325;28;21016;-75
2024/02/04 03:52:04;;;;;;;0.60;0.57;;;9.20;99.90;;;;;;5007534;28;20734;-75
2024/02/04 03:54:29;;;;;;;2.20;0.90;;;9.20;99.90;;;;;;5004779;28;20205;-76
2024/02/04 03:56:55;;;;;;;0.70;0.60;;;9.20;99.90;;;;;;4999810;28;21005;-76
2024/02/04 03:59:21;;;;;;;0.50;0.50;;;9.20;99.90;;;;;;5007826;28;20231;-76
2024/02/04 04:01:48;;;;;;;1.23;0.60;;;9.20;99.90;;;;;;5004641;28;20225;-75
2024/02/04 04:04:14;;;;;;;0.50;0.50;;;9.20;99.90;;;;;;5007940;28;20217;-75
2024/02/04 04:06:39;;;;;;;0.70;0.40;;;9.20;99.90;;;;;;5022557;28;20506;-76
2024/02/04 04:09:05;;;;;;;0.60;0.60;;;9.20;99.90;;;;;;5007763;28;20227;-76
2024/02/04 04:11:32;;;;;;;1.53;0.67;;;9.20;99.90;;;;;;5023504;28;20221;-76
2024/02/04 04:13:57;;;;;;;0.50;0.40;;;9.20;99.90;;;;;;5008569;28;20209;-75
2024/02/04 04:16:23;;;;;;;0.53;0.53;;;9.20;99.90;;;;;;4994154;28;21023;-76
2024/02/04 04:18:49;;;;;;;0.50;0.50;;;9.20;99.90;;;;;;4982821;28;20212;-75
2024/02/04 04:21:15;;;;;;;0.60;0.60;;;9.20;99.90;;;;;;5007427;28;20287;-75
2024/02/04 04:23:41;;;;;;;0.70;0.50;;;9.20;99.90;;;;;;4998682;28;20814;-75
2024/02/04 04:26:07;;;;;;;0.40;0.40;;;9.20;99.90;;;;;;4971414;28;20510;-75
2024/02/04 04:28:32;;;;;;;0.53;0.53;;;9.20;99.90;;;;;;4989012;28;20694;-75
2024/02/04 04:30:58;;;;;;;0.60;0.57;;;9.10;99.90;;;;;;4971244;28;20296;-75
2024/02/04 04:33:24;;;;;;;0.50;0.50;;;9.10;99.90;;;;;;4987226;28;20696;-75
2024/02/04 04:35:49;;;;;;;0.50;0.50;;;9.10;99.90;;;;;;4992579;28;20226;-75
2024/02/04 04:38:15;;;;;;;0.70;0.70;;;9.10;99.90;;;;;;4994311;28;20220;-76
2024/02/04 04:40:41;;;;;;;0.40;0.40;;;9.10;99.90;;;;;;5011578;28;20214;-76
2024/02/04 04:43:06;;;;;;;1.00;0.50;;;9.10;99.90;;;;;;5010679;28;20233;-75
2024/02/04 04:45:32;;;;;;;0.60;0.50;;;9.10;99.90;;;;;;5007722;28;20304;-76
2024/02/04 04:47:58;;;;;;;0.50;0.37;;;9.20;99.90;;;;;;5022517;28;20228;-75
2024/02/04 04:50:23;;;;;;;0.70;0.40;;;9.20;99.90;;;;;;5019758;28;20285;-76
2024/02/04 04:52:49;;;;;;;0.60;0.60;;;9.20;99.90;;;;;;5011068;28;20231;-76
2024/02/04 04:55:15;;;;;;;0.40;0.40;;;9.20;99.90;;;;;;5003544;28;20738;-76
2024/02/04 04:57:41;;;;;;;0.60;0.50;;;9.20;99.90;;;;;;5017613;28;20692;-75
2024/02/04 05:00:09;;;;;;;0.40;0.40;;;9.20;99.90;;;;;;5008462;28;20248;-77
2024/02/04 05:02:36;;;;;;;1.90;0.63;;;9.20;99.90;;;;;;5010036;28;20782;-76
2024/02/04 05:05:02;;;;;;;0.40;0.30;;;9.20;99.90;;;;;;4991727;28;20452;-76
2024/02/04 05:07:27;;;;;;;0.40;0.37;;;9.20;99.90;;;;;;5021024;28;20460;-76
2024/02/04 05:09:53;;;;;;;0.47;0.40;;;9.20;99.90;;;;;;5007497;28;20225;-77
2024/02/04 05:12:19;;;;;;;0.60;0.50;;;9.20;99.90;;;;;;5010956;28;20238;-76
2024/02/04 05:14:44;;;;;;;0.40;0.37;;;9.20;99.90;;;;;;5008050;28;20217;-74
2024/02/04 05:17:10;;;;;;;0.40;0.30;;;9.20;99.90;;;;;;5005764;28;20245;-75
2024/02/04 05:19:35;;;;;;;0.40;0.40;;;9.20;99.90;;;;;;5023428;28;20232;-76
2024/02/04 05:22:02;;;;;;;0.50;0.40;;;9.20;99.90;;;;;;5005102;28;20209;-75
2024/02/04 05:24:28;;;;;;;0.40;0.37;;;9.20;99.90;;;;;;5009776;28;20214;-76
2024/02/04 05:26:54;;;;;;;0.50;0.40;;;9.20;99.90;;;;;;5012194;28;20936;-76
2024/02/04 05:29:19;;;;;;;0.90;0.70;;;9.20;99.90;;;;;;5013035;28;20738;-76
2024/02/04 05:31:45;;;;;;;0.50;0.50;;;9.20;99.90;;;;;;5009534;28;20237;-76
2024/02/04 05:34:12;;;;;;;0.50;0.30;;;9.20;99.90;;;;;;5010493;28;20220;-75
2024/02/04 05:36:38;;;;;;;1.53;0.50;;;9.10;99.90;;;;;;5010567;28;20217;-76
2024/02/04 05:39:16;;;;;;;0.60;0.60;;;9.10;99.90;;;;;;4991276;28;20809;-76
2024/02/04 05:41:42;;;;;;;0.50;0.40;;;9.10;99.90;;;;;;5006933;28;20406;-75
2024/02/04 05:44:08;;;;;;;0.50;0.50;;;9.10;99.90;;;;;;5010233;28;20457;-76
2024/02/04 05:46:38;;;;;;;0.70;0.40;;;9.20;99.90;;;;;;5011607;28;21036;-76
2024/02/04 05:49:04;;;;;;;0.40;0.30;;;9.10;99.90;;;;;;5011496;28;20463;-75
2024/02/04 05:51:32;;;;;;;0.50;0.33;;;9.10;99.90;;;;;;5011556;28;20537;-75
2024/02/04 05:53:57;;;;;;;1.63;0.50;;;9.10;99.90;;;;;;5009665;28;20240;-76
2024/02/04 05:56:23;;;;;;;0.40;0.40;;;9.20;99.90;;;;;;4996322;28;20450;-76
2024/02/04 05:58:49;;;;;;;0.60;0.47;;;9.10;99.90;;;;;;5009500;28;20213;-76
2024/02/04 06:01:16;;;;;;;0.50;0.43;;;9.10;99.90;;;;;;5010336;28;20201;-76
2024/02/04 06:03:43;;;;;;;0.40;0.40;;;9.10;99.90;;;;;;5010123;28;20225;-76
2024/02/04 06:06:09;;;;;;;0.60;0.40;;;9.10;99.90;;;;;;5009714;28;20456;-76
2024/02/04 06:08:35;;;;;;;0.50;0.50;;;9.10;99.90;;;;;;5009647;28;20980;-76
2024/02/04 06:11:00;;;;;;;0.40;0.40;;;9.10;99.90;;;;;;5011045;28;20455;-76
2024/02/04 06:13:26;;;;;;;0.50;0.40;;;9.10;99.90;;;;;;4985357;28;20305;-76
2024/02/04 06:15:51;;;;;;;0.50;0.47;;;9.10;99.90;;;;;;4993400;28;20229;-76
2024/02/04 06:18:17;;;;;;;0.70;0.50;;;9.10;99.90;;;;;;4997971;28;20244;-76
2024/02/04 06:20:43;;;;;;;0.60;0.50;;;9.10;99.90;;;;;;5009348;28;20217;-76
2024/02/04 06:23:08;;;;;;;0.60;0.60;;;9.10;99.90;;;;;;5009670;28;20221;-74
2024/02/04 06:25:34;;;;;;;0.60;0.60;;;9.10;99.90;;;;;;5009094;28;20221;-76
2024/02/04 06:28:00;;;;;;;0.60;0.60;;;9.10;99.90;;;;;;4992396;28;20220;-75
2024/02/04 06:30:25;;;;;;;0.50;0.50;;;9.10;99.90;;;;;;5004285;28;20225;-76
2024/02/04 06:32:51;;;;;;;0.50;0.50;;;9.10;99.90;;;;;;4991607;28;20649;-76
2024/02/04 06:35:16;;;;;;;0.60;0.40;;;9.10;99.90;;;;;;5009878;28;20600;-76
2024/02/04 06:37:45;;;;;;;0.60;0.47;;;9.10;99.90;;;;;;5002791;28;20258;-75
2024/02/04 06:40:11;;;;;;;0.47;0.47;;;9.10;99.90;;;;;;5007273;28;20217;-76
2024/02/04 06:42:37;;;;;;;0.50;0.50;;;9.10;99.90;;;;;;5004289;28;20463;-76
2024/02/04 06:45:03;;;;;;;0.80;0.70;;;9.10;99.90;;;;;;5009858;28;20460;-76
2024/02/04 06:47:28;;;;;;;0.60;0.60;;;9.10;99.90;;;;;;5019120;28;20224;-76
2024/02/04 06:49:54;;;;;;;0.60;0.60;;;9.10;99.90;;;;;;5007536;28;20225;-76
2024/02/04 06:52:20;;;;;;;0.40;0.40;;;9.10;99.90;;;;;;5000033;28;20449;-76
2024/02/04 06:54:45;;;;;;;0.40;0.40;;;9.10;99.90;;;;;;4994187;28;20562;-76
2024/02/04 06:57:11;;;;;;;0.70;0.70;;;9.10;99.90;;;;;;4997899;28;20244;-76
2024/02/04 06:59:37;;;;;;;0.60;0.50;;;9.10;99.90;;;;;;5001717;28;20305;-77
2024/02/04 07:02:02;;;;;;;0.50;0.50;;;9.10;99.90;;;;;;4996663;28;20233;-76
2024/02/04 07:04:28;;;;;;;1.40;0.73;;;9.20;99.90;;;;;;5006259;28;20219;-76
2024/02/04 07:06:54;;;;;;;0.60;0.60;;;9.10;99.90;;;;;;5007739;28;20225;-76
2024/02/04 07:09:19;;;;;;;0.83;0.83;;;9.10;99.90;;;;;;5009848;28;20213;-76
2024/02/04 07:11:45;;;;;;;0.60;0.60;;;9.10;99.90;;;;;;4997526;28;20257;-75
2024/02/04 07:14:11;;;;;;;0.50;0.50;;;9.10;99.90;;;;;;5014921;28;20213;-74
2024/02/04 07:16:37;;;;;;;0.73;0.70;;;9.10;99.90;;;;;;4997707;28;20600;-76
2024/02/04 07:19:03;;;;;;;1.20;0.77;;;9.10;99.90;;;;;;5000447;28;20231;-74
2024/02/04 07:21:28;;;;;;;0.67;0.67;;;9.10;99.90;;;;;;5011725;28;20212;-76
2024/02/04 07:23:54;;;;;;;1.13;0.93;;;9.10;99.90;;;;;;5003091;28;20229;-76
2024/02/04 07:26:19;;;;;;;0.60;0.60;;;9.10;99.90;;;;;;5011456;28;20212;-76
2024/02/04 07:28:45;;;;;;;0.70;0.70;;;9.10;99.90;;;;;;4972607;28;20221;-75
2024/02/04 07:31:11;;;;;;;0.90;0.90;;;9.10;99.90;;;;;;4990159;28;20214;-75
2024/02/04 07:33:36;;;;;;;0.83;0.83;;;9.10;99.90;;;;;;4998097;28;20220;-75
2024/02/04 07:36:02;;;;;;;0.73;0.73;;;9.10;99.90;;;;;;5002041;28;20272;-76
2024/02/04 07:38:28;;;;;;;1.30;1.03;;;9.10;99.90;;;;;;4999908;28;20209;-76
2024/02/04 07:40:56;;;;;;;1.00;0.90;;;9.10;99.90;;;;;;4985988;28;20527;-76
2024/02/04 07:43:22;;;;;;;1.33;1.23;;;9.10;99.90;;;;;;4985497;28;20229;-75
2024/02/04 07:45:48;;;;;;;0.90;0.90;;;9.10;99.90;;;;;;4986914;28;20494;-77
2024/02/04 07:48:13;;;;;;;1.47;1.17;;;9.10;99.90;;;;;;5007601;28;20456;-76
2024/02/04 07:50:39;;;;;;;1.07;0.80;;;9.10;99.90;;;;;;4969113;28;20221;-75
2024/02/04 07:53:05;;;;;;;1.30;1.20;;;9.20;99.90;;;;;;5001703;28;20232;-77
2024/02/04 07:55:30;;;;;;;1.00;0.90;;;9.20;99.90;;;;;;4987375;28;20225;-76
2024/02/04 07:57:56;;;;;;;1.00;0.80;;;9.20;99.90;;;;;;5002896;28;20295;-75
2024/02/04 08:00:22;;;;;;;0.70;0.70;;;9.20;99.90;;;;;;5003098;28;20308;-75
2024/02/04 08:02:47;;;;;;;1.00;0.90;;;9.20;99.90;;;;;;4996470;28;20260;-75
2024/02/04 08:05:13;;;;;;;0.90;0.90;;;9.20;99.90;;;;;;5000192;28;20232;-75
2024/02/04 08:07:39;;;;;;;0.83;0.83;;;9.20;99.90;;;;;;4990886;28;20225;-75
2024/02/04 08:10:05;;;;;;;2.07;1.10;;;9.20;99.90;;;;;;4985290;28;20223;-74
2024/02/04 08:12:31;;;;;;;0.73;0.73;;;9.20;99.90;;;;;;5002840;28;20695;-75
2024/02/04 08:14:57;;;;;;;0.53;0.53;;;9.20;99.90;;;;;;5001602;28;20468;-75
2024/02/04 08:17:22;;;;;;;0.60;0.60;;;9.20;99.90;;;;;;5003493;28;20225;-75
2024/02/04 08:19:48;;;;;;;0.80;0.80;;;9.20;99.90;;;;;;4995328;28;20229;-76
2024/02/04 08:22:14;;;;;;;0.87;0.80;;;9.20;99.90;;;;;;5002428;28;20223;-75
2024/02/04 08:24:39;;;;;;;1.20;0.83;;;9.10;99.90;;;;;;4997910;28;20737;-75
2024/02/04 08:27:05;;;;;;;0.70;0.70;;;9.20;99.90;;;;;;5000778;28;20233;-75
2024/02/04 08:29:31;;;;;;;1.10;1.00;;;9.20;99.90;;;;;;4997172;28;20228;-76
2024/02/04 08:31:56;;;;;;;1.40;0.80;;;9.20;99.90;;;;;;4996869;28;20241;-76
2024/02/04 08:34:25;;;;;;;0.93;0.90;;;9.20;99.90;;;;;;5013495;28;20257;-76
2024/02/04 08:36:51;;;;;;;0.73;0.73;;;9.20;99.90;;;;;;4981297;28;20341;-76
2024/02/04 08:39:17;;;;;;;0.93;0.87;;;9.20;99.90;;;;;;5003357;28;20453;-76
2024/02/04 08:41:43;;;;;;;1.03;0.90;;;9.20;99.90;;;;;;4997824;28;21001;-76
2024/02/04 08:44:08;;;;;;;0.80;0.80;;;9.20;99.90;;;;;;5000625;28;20209;-76
2024/02/04 08:46:34;;;;;;;0.60;0.60;;;9.30;99.90;;;;;;4973102;28;20646;-76
2024/02/04 08:49:00;;;;;;;1.00;0.80;;;9.30;99.90;;;;;;4983498;28;20660;-76
2024/02/04 08:51:25;;;;;;;0.97;0.87;;;9.30;99.90;;;;;;4979586;28;20220;-76
2024/02/04 08:53:52;;;;;;;0.77;0.77;;;9.30;99.90;;;;;;5000660;28;20383;-76
2024/02/04 08:56:18;;;;;;;1.00;0.90;;;9.30;99.90;;;;;;5001179;28;20224;-76
2024/02/04 08:58:45;;;;;;;0.90;0.80;;;9.30;99.90;;;;;;4995680;28;20456;-76
2024/02/04 09:01:11;;;;;;;0.70;0.70;;;9.40;99.90;;;;;;4994805;28;20586;-76
2024/02/04 09:03:37;;;;;;;1.57;0.87;;;9.40;99.90;;;;;;5002963;28;20547;-76
2024/02/04 09:06:03;;;;;;;0.87;0.70;;;9.40;99.90;;;;;;4988218;28;20229;-76
2024/02/04 09:08:28;;;;;;;0.77;0.77;;;9.50;99.90;;;;;;5003746;28;20210;-77
2024/02/04 09:10:54;;;;;;;0.77;0.77;;;9.50;99.90;;;;;;5005092;28;20225;-76
2024/02/04 09:13:20;;;;;;;0.50;0.50;;;9.50;99.90;;;;;;4968198;28;20584;-76
2024/02/04 09:15:45;;;;;;;1.20;0.90;;;9.50;99.90;;;;;;4983331;28;20230;-76
2024/02/04 09:18:11;;;;;;;2.13;1.77;;;9.60;99.90;;;;;;4998662;28;20279;-76
2024/02/04 09:20:36;;;;;;;1.80;1.70;;;9.60;99.90;;;;;;5010011;28;20214;-76
2024/02/04 09:23:03;;;;;;;4.27;3.30;;;9.60;99.90;;;;;;4998332;28;20222;-76
2024/02/04 09:25:29;;;;;;;2.47;2.03;;;9.60;99.90;;;;;;4980084;28;20250;-76
2024/02/04 09:27:55;;;;;;;3.00;2.33;;;9.60;99.90;;;;;;5032990;28;20460;-76
2024/02/04 09:30:20;;;;;;;2.53;2.33;;;9.70;99.90;;;;;;4985933;28;20222;-75
2024/02/04 09:32:47;;;;;;;3.00;2.80;;;9.70;99.90;;;;;;4980228;28;20264;-76
2024/02/04 09:35:13;;;;;;;2.37;2.17;;;9.70;99.90;;;;;;4977837;28;20304;-76
2024/02/04 09:37:38;;;;;;;2.50;2.30;;;9.70;99.90;;;;;;4997978;28;20552;-76
2024/02/04 09:40:04;;;;;;;1.83;1.73;;;9.70;99.90;;;;;;5003680;28;20324;-76
2024/02/04 09:42:31;;;;;;;1.60;1.50;;;9.80;99.90;;;;;;4974700;28;20220;-77
2024/02/04 09:44:57;;;;;;;1.50;1.40;;;9.80;99.90;;;;;;4986420;28;20514;-77
2024/02/04 09:47:23;;;;;;;1.60;1.50;;;9.80;99.90;;;;;;5000745;28;20476;-77
2024/02/04 09:49:48;;;;;;;2.37;2.13;;;9.80;99.90;;;;;;4992886;28;20697;-77
2024/02/04 09:52:18;;;;;;;5.63;4.40;;;9.80;99.90;;;;;;5015991;28;20734;-76
2024/02/04 09:54:48;;;;;;;3.43;3.20;;;9.80;99.90;;;;;;4976592;28;20225;-75
2024/02/04 09:57:16;;;;;;;2.27;2.17;;;9.80;99.90;;;;;;4967935;28;20464;-76
2024/02/04 09:59:44;;;;;;;1.60;1.50;;;9.80;99.90;;;;;;4976615;28;20882;-77
2024/02/04 10:02:10;;;;;;;1.70;1.60;;;9.80;99.90;;;;;;4998375;28;20472;-76
2024/02/04 10:04:36;;;;;;;1.00;1.00;;;9.80;99.90;;;;;;4976730;28;20467;-76
2024/02/04 10:07:02;;;;;;;1.10;1.10;;;9.80;99.90;;;;;;4981686;28;20627;-76
2024/02/04 10:09:29;;;;;;;2.30;2.10;;;9.80;99.90;;;;;;4976342;28;20489;-76
2024/02/04 10:11:55;;;;;;;4.37;3.97;;;9.80;99.90;;;;;;5002531;28;20484;-77
2024/02/04 10:14:21;;;;;;;11.10;9.27;;;9.80;99.90;;;;;;5001490;28;20471;-76
2024/02/04 10:16:47;;;;;;;5.67;5.17;;;9.80;99.90;;;;;;4983695;28;20232;-76
2024/02/04 10:19:12;;;;;;;4.07;3.60;;;9.90;99.90;;;;;;4999366;28;20217;-77
2024/02/04 10:21:38;;;;;;;4.10;3.13;;;9.90;99.90;;;;;;4998550;28;20228;-75
2024/02/04 10:24:06;;;;;;;3.37;3.07;;;9.90;99.90;;;;;;4999752;28;20213;-77
2024/02/04 10:26:34;;;;;;;3.00;2.80;;;9.90;99.90;;;;;;5000287;28;20241;-76
2024/02/04 10:28:59;;;;;;;3.93;3.63;;;9.90;99.90;;;;;;4978485;28;20473;-76
2024/02/04 10:31:26;;;;;;;2.70;2.50;;;10.00;99.90;;;;;;4976270;28;20465;-77
2024/02/04 10:33:52;;;;;;;3.03;1.90;;;10.00;99.90;;;;;;4978400;28;20565;-76
2024/02/04 10:36:18;;;;;;;2.07;1.97;;;10.00;99.90;;;;;;4965381;28;20460;-77
2024/02/04 10:38:44;;;;;;;1.80;1.70;;;10.00;99.90;;;;;;4989247;28;20632;-77
2024/02/04 10:41:17;;;;;;;1.50;1.40;;;10.00;99.90;;;;;;5016887;28;21013;-76
2024/02/04 10:43:44;;;;;;;2.33;2.13;;;10.00;99.90;;;;;;4994342;28;20410;-76
2024/02/04 10:46:17;;;;;;;2.87;2.67;;;10.00;99.90;;;;;;5001274;28;21018;-76
2024/02/04 10:48:45;;;;;;;4.93;4.43;;;10.00;99.90;;;;;;5011142;28;20461;-77
2024/02/04 10:51:15;;;;;;;2.60;2.43;;;10.00;99.90;;;;;;4999640;28;20468;-76
2024/02/04 10:53:44;;;;;;;3.00;2.90;;;10.00;99.90;;;;;;5001684;28;20857;-77
2024/02/04 10:56:37;;;;;;;2.93;2.73;;;10.00;99.90;;;;;;5003157;28;20448;-76
2024/02/04 10:59:03;;;;;;;1.90;1.80;;;10.00;99.90;;;;;;5002278;28;20452;-76
2024/02/04 11:01:30;;;;;;;1.90;1.80;;;10.00;99.90;;;;;;5008964;28;20467;-76
2024/02/04 11:03:57;;;;;;;2.60;2.40;;;10.10;99.90;;;;;;5010834;28;20448;-76
2024/02/04 11:06:23;;;;;;;1.67;1.57;;;10.10;99.90;;;;;;5001362;28;20515;-76
2024/02/04 11:08:52;;;;;;;1.67;1.57;;;10.10;99.90;;;;;;4988939;28;20975;-77
2024/02/04 11:11:24;;;;;;;1.50;1.40;;;10.10;99.90;;;;;;4997553;28;20508;-77
2024/02/04 11:13:53;;;;;;;0.93;0.93;;;10.10;99.90;;;;;;5006691;28;20495;-76
2024/02/04 11:16:39;;;;;;;1.23;1.20;;;10.20;99.90;;;;;;5003602;28;20449;-77
2024/02/04 11:19:37;;;;;;;1.03;1.03;;;10.20;99.90;;;;;;5003496;28;20495;-76
2024/02/04 11:22:39;;;;;;;1.37;1.27;;;10.20;99.90;;;;;;5021854;28;20456;-76
2024/02/04 11:25:33;;;;;;;1.83;1.00;;;10.20;99.90;;;;;;4991260;28;20541;-77
2024/02/04 11:27:59;;;;;;;1.50;1.40;;;10.20;99.90;;;;;;4987211;28;20981;-77
2024/02/04 11:30:24;;;;;;;1.20;1.10;;;10.20;99.90;;;;;;4984342;28;20457;-76
2024/02/04 11:32:51;;;;;;;1.67;1.57;;;10.30;99.90;;;;;;4991449;28;20466;-77
2024/02/04 11:35:17;;;;;;;2.50;1.90;;;10.30;99.90;;;;;;4979857;28;20217;-77
2024/02/04 11:37:45;;;;;;;1.83;1.73;;;10.30;99.90;;;;;;4984297;28;20480;-77
2024/02/04 11:40:18;;;;;;;1.97;1.57;;;10.30;99.90;;;;;;4983651;28;20468;-76
2024/02/04 11:42:45;;;;;;;1.30;1.30;;;10.30;99.90;;;;;;5003360;28;20507;-76
2024/02/04 11:45:14;;;;;;;1.63;1.40;;;10.40;99.90;;;;;;4983121;28;20460;-77
2024/02/04 11:47:40;;;;;;;2.10;2.00;;;10.50;99.90;;;;;;4996191;28;20440;-76
2024/02/04 11:50:07;;;;;;;2.03;1.90;;;10.60;99.90;;;;;;4974014;28;20492;-76
2024/02/04 11:52:33;;;;;;;3.27;3.07;;;10.60;99.90;;;;;;4993600;28;20905;-77
2024/02/04 11:54:59;;;;;;;1.47;1.37;;;10.70;99.90;;;;;;5003304;28;20510;-76
2024/02/04 11:57:26;;;;;;;1.77;1.40;;;10.70;99.90;;;;;;5005290;28;20225;-77
2024/02/04 11:59:55;;;;;;;1.37;1.27;;;10.70;99.90;;;;;;5007284;28;20475;-76
2024/02/04 12:02:21;;;;;;;1.07;1.07;;;10.70;99.90;;;;;;5020012;28;20679;-77
2024/02/04 12:04:48;;;;;;;0.93;0.90;;;10.80;99.90;;;;;;4990719;28;20889;-77
2024/02/04 12:07:14;;;;;;;1.40;1.03;;;10.90;99.90;;;;;;4985769;28;20221;-77
2024/02/04 12:09:41;;;;;;;2.07;1.83;;;10.90;99.90;;;;;;4983204;28;20465;-77
2024/02/04 12:12:07;;;;;;;1.73;1.63;;;10.90;99.90;;;;;;4986638;28;20481;-77
2024/02/04 12:14:35;;;;;;;1.53;1.20;;;11.00;99.90;;;;;;4965567;28;20468;-77
2024/02/04 12:17:10;;;;;;;5.10;3.17;;;10.90;99.90;;;;;;4985554;28;20480;-75
2024/02/04 12:19:38;;;;;;;3.70;3.40;;;10.90;99.90;;;;;;4984999;28;20488;-76
2024/02/04 12:22:09;;;;;;;2.80;2.50;;;10.90;99.90;;;;;;4984494;28;20529;-76
2024/02/04 12:24:36;;;;;;;6.13;4.93;;;10.90;99.90;;;;;;4979188;28;20469;-76
2024/02/04 12:27:03;;;;;;;5.60;4.90;;;10.80;99.90;;;;;;4985073;28;20470;-76
2024/02/04 12:29:28;;;;;;;4.73;4.23;;;10.80;99.90;;;;;;4983583;28;20528;-76
2024/02/04 12:32:05;;;;;;;6.60;3.30;;;10.80;99.90;;;;;;4987463;28;20998;-75
2024/02/04 12:34:34;;;;;;;2.97;2.70;;;10.80;99.90;;;;;;5001422;28;20221;-76
2024/02/04 12:37:00;;;;;;;1.60;1.50;;;10.80;99.90;;;;;;4979985;28;20465;-76
2024/02/04 12:39:27;;;;;;;2.20;2.00;;;10.80;99.90;;;;;;5001480;28;20865;-76
2024/02/04 12:41:52;;;;;;;1.77;1.67;;;10.80;99.90;;;;;;4989962;28;20484;-77
2024/02/04 12:44:19;;;;;;;1.77;1.60;;;10.90;99.90;;;;;;5005859;28;20468;-77
2024/02/04 12:46:44;;;;;;;1.97;1.50;;;10.80;99.90;;;;;;5018669;28;20280;-74
2024/02/04 12:49:17;;;;;;;2.37;1.90;;;10.90;99.90;;;;;;5001167;28;20873;-77
2024/02/04 12:51:43;;;;;;;2.00;1.50;;;10.90;99.90;;;;;;5004802;28;20232;-76
2024/02/04 12:54:10;;;;;;;1.10;1.10;;;10.90;99.90;;;;;;5016776;28;20460;-75